sensor_id;sensor_type;location;lat;lon;timestamp;pressure;altitude;pressure_sealevel;temperature;humidity
68301;BME280;55146;47.468;18.806;2022-08-04T00:02:09;100093.47;;;20.95;65.27
68301;BME280;55146;47.468;18.806;2022-08-04T00:04:41;100097.84;;;20.84;65.77
68301;BME280;55146;47.468;18.806;2022-08-04T00:07:15;100090.34;;;20.76;66.43
68301;BME280;55146;47.468;18.806;2022-08-04T00:09:56;100083.88;;;20.84;65.99
68301;BME280;55146;47.468;18.806;2022-08-04T00:12:24;100082.91;;;20.80;66.18
68301;BME280;55146;47.468;18.806;2022-08-04T00:14:56;100088.72;;;20.75;66.56
68301;BME280;55146;47.468;18.806;2022-08-04T00:17:27;100088.81;;;20.67;66.67
68301;BME280;55146;47.468;18.806;2022-08-04T00:19:59;100085.81;;;20.72;66.48
68301;BME280;55146;47.468;18.806;2022-08-04T00:22:27;100089.09;;;20.74;66.28
68301;BME280;55146;47.468;18.806;2022-08-04T00:24:54;100087.28;;;20.69;66.19
68301;BME280;55146;47.468;18.806;2022-08-04T00:27:20;100088.19;;;20.61;66.30
68301;BME280;55146;47.468;18.806;2022-08-04T00:29:46;100086.34;;;20.65;66.14
68301;BME280;55146;47.468;18.806;2022-08-04T00:32:12;100093.63;;;20.57;66.63
68301;BME280;55146;47.468;18.806;2022-08-04T00:34:37;100090.94;;;20.49;66.78
68301;BME280;55146;47.468;18.806;2022-08-04T00:37:04;100090.72;;;20.54;66.62
68301;BME280;55146;47.468;18.806;2022-08-04T00:39:31;100098.75;;;20.55;66.92
68301;BME280;55146;47.468;18.806;2022-08-04T00:42:24;100100.31;;;20.44;67.28
68301;BME280;55146;47.468;18.806;2022-08-04T00:50:09;100096.69;;;20.44;66.91
68301;BME280;55146;47.468;18.806;2022-08-04T00:53:03;100100.81;;;20.46;66.78
68301;BME280;55146;47.468;18.806;2022-08-04T00:56:04;100102.06;;;20.28;67.20
68301;BME280;55146;47.468;18.806;2022-08-04T01:01:54;100103.03;;;20.32;67.12
68301;BME280;55146;47.468;18.806;2022-08-04T01:10:27;100100.31;;;20.15;65.38
68301;BME280;55146;47.468;18.806;2022-08-04T01:13:10;100106.25;;;20.13;64.92
68301;BME280;55146;47.468;18.806;2022-08-04T01:15:52;100101.03;;;20.12;64.55
68301;BME280;55146;47.468;18.806;2022-08-04T01:18:43;100109.56;;;20.07;64.67
68301;BME280;55146;47.468;18.806;2022-08-04T01:21:21;100104.13;;;20.10;65.42
68301;BME280;55146;47.468;18.806;2022-08-04T01:24:24;100103.66;;;20.08;65.14
68301;BME280;55146;47.468;18.806;2022-08-04T01:27:17;100112.34;;;20.07;64.87
68301;BME280;55146;47.468;18.806;2022-08-04T01:29:55;100104.03;;;19.98;64.91
68301;BME280;55146;47.468;18.806;2022-08-04T01:32:29;100110.78;;;19.97;64.58
68301;BME280;55146;47.468;18.806;2022-08-04T01:35:03;100106.34;;;19.96;64.73
68301;BME280;55146;47.468;18.806;2022-08-04T01:40:05;100110.47;;;19.90;65.26
68301;BME280;55146;47.468;18.806;2022-08-04T01:42:32;100116.06;;;19.90;64.88
68301;BME280;55146;47.468;18.806;2022-08-04T01:45:00;100110.63;;;19.94;65.09
68301;BME280;55146;47.468;18.806;2022-08-04T01:47:28;100115.06;;;19.95;65.39
68301;BME280;55146;47.468;18.806;2022-08-04T01:49:54;100110.78;;;19.97;65.01
68301;BME280;55146;47.468;18.806;2022-08-04T01:52:26;100104.19;;;20.02;64.60
68301;BME280;55146;47.468;18.806;2022-08-04T01:54:52;100107.16;;;19.97;65.08
68301;BME280;55146;47.468;18.806;2022-08-04T01:57:19;100100.00;;;19.87;64.57
68301;BME280;55146;47.468;18.806;2022-08-04T01:59:45;100103.59;;;19.88;63.66
68301;BME280;55146;47.468;18.806;2022-08-04T02:02:11;100096.56;;;19.82;63.02
68301;BME280;55146;47.468;18.806;2022-08-04T02:04:36;100104.31;;;19.76;63.31
68301;BME280;55146;47.468;18.806;2022-08-04T02:07:16;100097.44;;;19.73;62.27
68301;BME280;55146;47.468;18.806;2022-08-04T02:10:00;100104.66;;;19.74;61.71
68301;BME280;55146;47.468;18.806;2022-08-04T02:15:20;100101.75;;;19.62;61.70
68301;BME280;55146;47.468;18.806;2022-08-04T02:20:28;100097.97;;;19.58;60.80
68301;BME280;55146;47.468;18.806;2022-08-04T02:23:03;100090.94;;;19.52;61.02
68301;BME280;55146;47.468;18.806;2022-08-04T02:25:39;100092.28;;;19.46;61.80
68301;BME280;55146;47.468;18.806;2022-08-04T02:28:15;100094.06;;;19.42;62.15
68301;BME280;55146;47.468;18.806;2022-08-04T02:30:48;100098.66;;;19.38;63.04
68301;BME280;55146;47.468;18.806;2022-08-04T02:33:19;100088.00;;;19.40;63.61
68301;BME280;55146;47.468;18.806;2022-08-04T02:35:53;100087.87;;;19.36;64.20
68301;BME280;55146;47.468;18.806;2022-08-04T02:41:06;100096.22;;;19.36;64.60
68301;BME280;55146;47.468;18.806;2022-08-04T02:43:34;100101.19;;;19.31;65.12
68301;BME280;55146;47.468;18.806;2022-08-04T02:46:01;100091.50;;;19.28;65.20
68301;BME280;55146;47.468;18.806;2022-08-04T02:48:28;100095.41;;;19.27;65.51
68301;BME280;55146;47.468;18.806;2022-08-04T02:50:55;100090.47;;;19.33;64.92
68301;BME280;55146;47.468;18.806;2022-08-04T02:53:22;100094.91;;;19.34;65.46
68301;BME280;55146;47.468;18.806;2022-08-04T02:55:50;100098.37;;;19.31;65.34
68301;BME280;55146;47.468;18.806;2022-08-04T02:58:19;100084.09;;;19.32;65.55
68301;BME280;55146;47.468;18.806;2022-08-04T03:00:44;100088.19;;;19.35;65.51
68301;BME280;55146;47.468;18.806;2022-08-04T03:03:20;100089.88;;;19.19;65.20
68301;BME280;55146;47.468;18.806;2022-08-04T03:14:50;100090.12;;;19.52;63.53
68301;BME280;55146;47.468;18.806;2022-08-04T03:17:53;100094.56;;;19.53;63.68
68301;BME280;55146;47.468;18.806;2022-08-04T03:46:38;100102.41;;;19.59;64.50
68301;BME280;55146;47.468;18.806;2022-08-04T03:58:05;100106.69;;;19.57;66.34
68301;BME280;55146;47.468;18.806;2022-08-04T04:16:43;100113.44;;;19.56;67.30
68301;BME280;55146;47.468;18.806;2022-08-04T04:22:03;100115.81;;;19.74;66.66
68301;BME280;55146;47.468;18.806;2022-08-04T04:24:53;100108.59;;;19.73;66.97
68301;BME280;55146;47.468;18.806;2022-08-04T04:33:25;100115.97;;;19.78;67.81
68301;BME280;55146;47.468;18.806;2022-08-04T04:36:18;100113.66;;;19.80;68.27
68301;BME280;55146;47.468;18.806;2022-08-04T04:39:01;100119.38;;;19.84;67.89
68301;BME280;55146;47.468;18.806;2022-08-04T04:49:30;100125.28;;;19.91;67.58
68301;BME280;55146;47.468;18.806;2022-08-04T04:54:37;100131.19;;;19.89;66.07
68301;BME280;55146;47.468;18.806;2022-08-04T04:57:08;100136.44;;;19.91;65.70
68301;BME280;55146;47.468;18.806;2022-08-04T04:59:38;100129.00;;;19.95;63.13
68301;BME280;55146;47.468;18.806;2022-08-04T05:05:27;100120.94;;;20.02;63.32
68301;BME280;55146;47.468;18.806;2022-08-04T05:13:45;100134.75;;;20.57;60.37
68301;BME280;55146;47.468;18.806;2022-08-04T05:19:23;100125.94;;;20.88;58.69
68301;BME280;55146;47.468;18.806;2022-08-04T05:22:03;100138.00;;;21.00;57.60
68301;BME280;55146;47.468;18.806;2022-08-04T05:24:37;100133.56;;;21.20;56.92
68301;BME280;55146;47.468;18.806;2022-08-04T05:27:11;100134.22;;;21.38;56.05
68301;BME280;55146;47.468;18.806;2022-08-04T05:29:45;100140.41;;;21.44;56.65
68301;BME280;55146;47.468;18.806;2022-08-04T05:32:14;100144.84;;;21.45;56.51
68301;BME280;55146;47.468;18.806;2022-08-04T05:34:44;100145.72;;;21.69;54.76
68301;BME280;55146;47.468;18.806;2022-08-04T05:37:15;100136.25;;;21.62;56.59
68301;BME280;55146;47.468;18.806;2022-08-04T05:39:44;100141.63;;;21.79;55.59
68301;BME280;55146;47.468;18.806;2022-08-04T05:42:11;100139.22;;;21.90;54.94
68301;BME280;55146;47.468;18.806;2022-08-04T05:44:37;100140.53;;;22.04;54.29
68301;BME280;55146;47.468;18.806;2022-08-04T05:47:04;100134.22;;;22.07;54.47
68301;BME280;55146;47.468;18.806;2022-08-04T05:49:31;100138.66;;;22.33;53.34
68301;BME280;55146;47.468;18.806;2022-08-04T05:52:00;100144.94;;;22.42;53.13
68301;BME280;55146;47.468;18.806;2022-08-04T05:54:28;100145.06;;;22.45;53.89
68301;BME280;55146;47.468;18.806;2022-08-04T05:56:56;100149.37;;;22.55;52.94
68301;BME280;55146;47.468;18.806;2022-08-04T05:59:21;100142.09;;;22.66;52.19
68301;BME280;55146;47.468;18.806;2022-08-04T06:01:50;100150.28;;;22.83;51.65
68301;BME280;55146;47.468;18.806;2022-08-04T06:04:17;100144.03;;;22.90;51.58
68301;BME280;55146;47.468;18.806;2022-08-04T06:06:44;100156.16;;;23.06;50.30
68301;BME280;55146;47.468;18.806;2022-08-04T06:09:10;100154.56;;;23.21;49.47
68301;BME280;55146;47.468;18.806;2022-08-04T06:11:37;100149.09;;;23.40;48.83
68301;BME280;55146;47.468;18.806;2022-08-04T06:14:06;100154.03;;;23.59;49.34
68301;BME280;55146;47.468;18.806;2022-08-04T06:16:40;100146.09;;;23.76;50.59
68301;BME280;55146;47.468;18.806;2022-08-04T06:19:10;100154.53;;;24.08;47.91
68301;BME280;55146;47.468;18.806;2022-08-04T06:21:42;100157.25;;;24.36;46.86
68301;BME280;55146;47.468;18.806;2022-08-04T06:24:12;100154.66;;;24.62;47.60
68301;BME280;55146;47.468;18.806;2022-08-04T06:26:39;100153.69;;;24.89;45.03
68301;BME280;55146;47.468;18.806;2022-08-04T06:29:06;100153.47;;;25.17;44.98
68301;BME280;55146;47.468;18.806;2022-08-04T06:31:41;100157.62;;;25.43;43.18
68301;BME280;55146;47.468;18.806;2022-08-04T06:34:08;100158.53;;;25.69;43.70
68301;BME280;55146;47.468;18.806;2022-08-04T06:36:36;100148.53;;;25.95;44.12
68301;BME280;55146;47.468;18.806;2022-08-04T06:39:03;100157.03;;;26.21;42.47
68301;BME280;55146;47.468;18.806;2022-08-04T06:41:30;100155.97;;;26.55;42.43
68301;BME280;55146;47.468;18.806;2022-08-04T06:44:01;100164.81;;;26.80;42.43
68301;BME280;55146;47.468;18.806;2022-08-04T06:46:28;100154.25;;;27.04;42.10
68301;BME280;55146;47.468;18.806;2022-08-04T06:48:54;100149.75;;;26.99;42.35
68301;BME280;55146;47.468;18.806;2022-08-04T06:51:22;100147.38;;;27.34;44.51
68301;BME280;55146;47.468;18.806;2022-08-04T06:53:48;100152.87;;;27.54;41.34
68301;BME280;55146;47.468;18.806;2022-08-04T06:56:15;100151.47;;;27.74;40.75
68301;BME280;55146;47.468;18.806;2022-08-04T06:58:42;100151.69;;;27.99;39.52
68301;BME280;55146;47.468;18.806;2022-08-04T07:01:09;100150.19;;;28.12;41.02
68301;BME280;55146;47.468;18.806;2022-08-04T07:03:36;100157.06;;;28.11;41.39
68301;BME280;55146;47.468;18.806;2022-08-04T07:06:01;100157.41;;;28.53;40.26
68301;BME280;55146;47.468;18.806;2022-08-04T07:08:27;100153.13;;;28.74;39.74
68301;BME280;55146;47.468;18.806;2022-08-04T07:10:54;100152.75;;;28.82;37.84
68301;BME280;55146;47.468;18.806;2022-08-04T07:13:21;100155.72;;;29.07;38.15
68301;BME280;55146;47.468;18.806;2022-08-04T07:15:47;100156.94;;;29.10;36.19
68301;BME280;55146;47.468;18.806;2022-08-04T07:18:13;100160.62;;;29.21;37.56
68301;BME280;55146;47.468;18.806;2022-08-04T07:20:41;100160.72;;;29.35;37.25
68301;BME280;55146;47.468;18.806;2022-08-04T07:23:07;100159.59;;;29.64;36.25
68301;BME280;55146;47.468;18.806;2022-08-04T07:25:34;100149.91;;;29.90;36.89
68301;BME280;55146;47.468;18.806;2022-08-04T07:28:00;100150.38;;;30.17;37.45
68301;BME280;55146;47.468;18.806;2022-08-04T07:30:26;100154.81;;;30.39;36.85
68301;BME280;55146;47.468;18.806;2022-08-04T07:32:53;100153.63;;;30.54;35.08
68301;BME280;55146;47.468;18.806;2022-08-04T07:35:19;100153.59;;;30.47;34.53
68301;BME280;55146;47.468;18.806;2022-08-04T07:37:46;100149.50;;;30.77;34.00
68301;BME280;55146;47.468;18.806;2022-08-04T07:40:11;100152.69;;;30.93;34.49
68301;BME280;55146;47.468;18.806;2022-08-04T07:42:36;100144.59;;;30.88;33.45
68301;BME280;55146;47.468;18.806;2022-08-04T07:45:03;100154.38;;;30.76;34.39
68301;BME280;55146;47.468;18.806;2022-08-04T07:47:29;100140.88;;;31.12;35.11
68301;BME280;55146;47.468;18.806;2022-08-04T07:49:54;100141.22;;;31.28;34.83
68301;BME280;55146;47.468;18.806;2022-08-04T07:52:21;100135.41;;;31.53;34.50
68301;BME280;55146;47.468;18.806;2022-08-04T07:54:47;100139.09;;;31.47;32.49
68301;BME280;55146;47.468;18.806;2022-08-04T07:57:16;100130.12;;;31.48;31.50
68301;BME280;55146;47.468;18.806;2022-08-04T07:59:43;100132.94;;;31.59;31.81
68301;BME280;55146;47.468;18.806;2022-08-04T08:02:09;100130.84;;;31.66;33.58
68301;BME280;55146;47.468;18.806;2022-08-04T08:04:35;100128.72;;;31.85;32.96
68301;BME280;55146;47.468;18.806;2022-08-04T08:07:00;100131.97;;;31.80;32.46
68301;BME280;55146;47.468;18.806;2022-08-04T08:09:26;100133.41;;;32.09;31.62
68301;BME280;55146;47.468;18.806;2022-08-04T08:11:52;100141.87;;;32.16;33.52
68301;BME280;55146;47.468;18.806;2022-08-04T08:14:19;100131.47;;;32.43;31.97
68301;BME280;55146;47.468;18.806;2022-08-04T08:16:45;100135.41;;;32.57;33.71
68301;BME280;55146;47.468;18.806;2022-08-04T08:19:11;100133.69;;;32.70;30.76
68301;BME280;55146;47.468;18.806;2022-08-04T08:21:37;100124.25;;;32.76;31.69
68301;BME280;55146;47.468;18.806;2022-08-04T08:24:04;100140.34;;;32.90;30.06
68301;BME280;55146;47.468;18.806;2022-08-04T08:26:29;100143.97;;;32.94;31.14
68301;BME280;55146;47.468;18.806;2022-08-04T08:28:55;100129.44;;;33.15;29.59
68301;BME280;55146;47.468;18.806;2022-08-04T08:31:21;100131.50;;;33.15;28.42
68301;BME280;55146;47.468;18.806;2022-08-04T08:33:47;100135.28;;;33.05;28.55
68301;BME280;55146;47.468;18.806;2022-08-04T08:36:25;100141.00;;;33.05;27.65
68301;BME280;55146;47.468;18.806;2022-08-04T08:41:47;100134.16;;;33.33;32.10
68301;BME280;55146;47.468;18.806;2022-08-04T08:55:36;100126.31;;;34.21;28.99
68301;BME280;55146;47.468;18.806;2022-08-04T09:03:55;100126.50;;;34.33;25.13
68301;BME280;55146;47.468;18.806;2022-08-04T09:12:13;100129.03;;;34.51;27.75
68301;BME280;55146;47.468;18.806;2022-08-04T09:17:12;100126.47;;;34.80;28.40
68301;BME280;55146;47.468;18.806;2022-08-04T09:19:54;100122.44;;;34.54;26.67
68301;BME280;55146;47.468;18.806;2022-08-04T09:22:28;100130.28;;;34.73;25.51
68301;BME280;55146;47.468;18.806;2022-08-04T09:25:11;100125.06;;;34.88;26.90
68301;BME280;55146;47.468;18.806;2022-08-04T09:27:51;100119.81;;;34.86;26.79
68301;BME280;55146;47.468;18.806;2022-08-04T09:30:30;100124.19;;;34.91;28.28
68301;BME280;55146;47.468;18.806;2022-08-04T09:33:17;100117.44;;;35.01;27.75
68301;BME280;55146;47.468;18.806;2022-08-04T09:36:14;100108.84;;;34.62;28.17
68301;BME280;55146;47.468;18.806;2022-08-04T09:39:09;100115.50;;;34.32;25.48
68301;BME280;55146;47.468;18.806;2022-08-04T09:41:54;100118.81;;;34.30;25.95
68301;BME280;55146;47.468;18.806;2022-08-04T09:44:37;100120.81;;;34.53;27.41
68301;BME280;55146;47.468;18.806;2022-08-04T09:49:54;100112.19;;;35.00;26.46
68301;BME280;55146;47.468;18.806;2022-08-04T09:52:43;100108.34;;;35.06;25.66
68301;BME280;55146;47.468;18.806;2022-08-04T09:58:07;100100.81;;;34.96;25.96
68301;BME280;55146;47.468;18.806;2022-08-04T10:00:43;100096.41;;;34.92;24.73
68301;BME280;55146;47.468;18.806;2022-08-04T10:03:10;100099.56;;;34.77;25.52
68301;BME280;55146;47.468;18.806;2022-08-04T10:08:55;100094.94;;;35.23;23.98
68301;BME280;55146;47.468;18.806;2022-08-04T10:17:28;100091.13;;;35.10;24.26
68301;BME280;55146;47.468;18.806;2022-08-04T10:22:35;100088.66;;;35.48;26.02
68301;BME280;55146;47.468;18.806;2022-08-04T10:25:14;100084.66;;;35.25;24.57
68301;BME280;55146;47.468;18.806;2022-08-04T10:27:59;100073.66;;;35.04;24.09
68301;BME280;55146;47.468;18.806;2022-08-04T10:30:27;100084.72;;;35.58;25.45
68301;BME280;55146;47.468;18.806;2022-08-04T10:33:08;100087.06;;;35.63;25.83
68301;BME280;55146;47.468;18.806;2022-08-04T10:35:51;100079.03;;;35.74;24.99
68301;BME280;55146;47.468;18.806;2022-08-04T10:38:22;100071.97;;;35.95;28.05
68301;BME280;55146;47.468;18.806;2022-08-04T10:40:57;100076.16;;;36.06;25.44
68301;BME280;55146;47.468;18.806;2022-08-04T10:43:37;100077.19;;;36.16;24.08
68301;BME280;55146;47.468;18.806;2022-08-04T10:46:15;100066.59;;;36.13;23.77
68301;BME280;55146;47.468;18.806;2022-08-04T10:51:28;100073.22;;;35.94;25.24
68301;BME280;55146;47.468;18.806;2022-08-04T10:54:00;100071.06;;;35.65;24.74
68301;BME280;55146;47.468;18.806;2022-08-04T10:56:37;100063.00;;;35.93;25.57
68301;BME280;55146;47.468;18.806;2022-08-04T10:59:10;100065.97;;;36.05;27.83
68301;BME280;55146;47.468;18.806;2022-08-04T11:01:39;100058.72;;;36.17;24.20
68301;BME280;55146;47.468;18.806;2022-08-04T11:04:25;100055.34;;;35.90;24.36
68301;BME280;55146;47.468;18.806;2022-08-04T11:06:57;100060.34;;;35.69;24.53
68301;BME280;55146;47.468;18.806;2022-08-04T11:09:23;100052.75;;;35.43;22.87
68301;BME280;55146;47.468;18.806;2022-08-04T11:11:56;100055.25;;;35.77;22.42
68301;BME280;55146;47.468;18.806;2022-08-04T11:14:52;100051.22;;;35.91;25.41
68301;BME280;55146;47.468;18.806;2022-08-04T11:17:40;100045.75;;;35.96;23.83
68301;BME280;55146;47.468;18.806;2022-08-04T11:20:15;100047.63;;;36.19;22.64
68301;BME280;55146;47.468;18.806;2022-08-04T11:22:57;100039.03;;;36.19;27.35
68301;BME280;55146;47.468;18.806;2022-08-04T11:25:28;100044.47;;;36.30;26.41
68301;BME280;55146;47.468;18.806;2022-08-04T11:30:34;100039.66;;;36.27;26.51
68301;BME280;55146;47.468;18.806;2022-08-04T11:35:43;100035.88;;;36.59;26.75
68301;BME280;55146;47.468;18.806;2022-08-04T11:40:42;100028.38;;;36.65;21.84
68301;BME280;55146;47.468;18.806;2022-08-04T11:43:15;100028.91;;;36.60;23.92
68301;BME280;55146;47.468;18.806;2022-08-04T11:45:59;100025.25;;;36.43;22.04
68301;BME280;55146;47.468;18.806;2022-08-04T11:48:32;100031.31;;;36.32;23.92
68301;BME280;55146;47.468;18.806;2022-08-04T11:51:00;100021.25;;;36.40;26.32
68301;BME280;55146;47.468;18.806;2022-08-04T11:53:29;100017.38;;;36.47;22.56
68301;BME280;55146;47.468;18.806;2022-08-04T11:55:58;100013.50;;;35.92;22.81
68301;BME280;55146;47.468;18.806;2022-08-04T11:58:24;100012.50;;;36.15;24.68
68301;BME280;55146;47.468;18.806;2022-08-04T12:01:08;100009.28;;;36.13;23.25
68301;BME280;55146;47.468;18.806;2022-08-04T12:06:54;100002.41;;;35.62;23.98
68301;BME280;55146;47.468;18.806;2022-08-04T12:09:30;99994.19;;;35.80;24.31
68301;BME280;55146;47.468;18.806;2022-08-04T12:12:24;99997.97;;;35.77;26.60
68301;BME280;55146;47.468;18.806;2022-08-04T12:15:02;99994.16;;;36.13;24.87
68301;BME280;55146;47.468;18.806;2022-08-04T12:17:50;99990.62;;;35.76;23.58
68301;BME280;55146;47.468;18.806;2022-08-04T12:20:21;99983.53;;;35.64;23.53
68301;BME280;55146;47.468;18.806;2022-08-04T12:22:49;99982.81;;;36.09;25.26
68301;BME280;55146;47.468;18.806;2022-08-04T12:25:33;99978.25;;;35.95;22.34
68301;BME280;55146;47.468;18.806;2022-08-04T12:28:04;99981.56;;;36.39;25.27
68301;BME280;55146;47.468;18.806;2022-08-04T12:30:39;99977.56;;;36.49;25.27
68301;BME280;55146;47.468;18.806;2022-08-04T12:35:56;99976.88;;;36.45;22.42
68301;BME280;55146;47.468;18.806;2022-08-04T12:38:25;99968.84;;;35.95;20.73
68301;BME280;55146;47.468;18.806;2022-08-04T12:40:54;99965.09;;;35.49;22.82
68301;BME280;55146;47.468;18.806;2022-08-04T12:43:35;99962.72;;;35.48;24.25
68301;BME280;55146;47.468;18.806;2022-08-04T12:46:05;99970.47;;;35.63;23.22
68301;BME280;55146;47.468;18.806;2022-08-04T12:48:33;99961.09;;;35.63;23.08
68301;BME280;55146;47.468;18.806;2022-08-04T12:50:59;99955.28;;;35.66;22.07
68301;BME280;55146;47.468;18.806;2022-08-04T12:53:29;99950.53;;;35.76;22.97
68301;BME280;55146;47.468;18.806;2022-08-04T12:55:56;99956.53;;;35.65;23.41
68301;BME280;55146;47.468;18.806;2022-08-04T12:58:24;99960.63;;;35.32;24.06
68301;BME280;55146;47.468;18.806;2022-08-04T13:01:19;99962.91;;;35.41;23.52
68301;BME280;55146;47.468;18.806;2022-08-04T13:03:52;99954.91;;;35.64;24.74
68301;BME280;55146;47.468;18.806;2022-08-04T13:06:24;99954.53;;;35.62;23.60
68301;BME280;55146;47.468;18.806;2022-08-04T13:08:51;99946.44;;;35.45;23.65
68301;BME280;55146;47.468;18.806;2022-08-04T13:11:18;99945.34;;;35.39;23.03
68301;BME280;55146;47.468;18.806;2022-08-04T13:13:46;99950.63;;;35.40;22.39
68301;BME280;55146;47.468;18.806;2022-08-04T13:16:15;99941.28;;;35.04;22.71
68301;BME280;55146;47.468;18.806;2022-08-04T13:18:45;99944.06;;;34.71;23.74
68301;BME280;55146;47.468;18.806;2022-08-04T13:21:14;99941.97;;;34.92;23.20
68301;BME280;55146;47.468;18.806;2022-08-04T13:23:41;99935.53;;;34.87;22.24
68301;BME280;55146;47.468;18.806;2022-08-04T13:26:07;99934.75;;;34.87;22.71
68301;BME280;55146;47.468;18.806;2022-08-04T13:28:33;99939.28;;;34.84;23.15
68301;BME280;55146;47.468;18.806;2022-08-04T13:31:06;99936.59;;;34.77;23.86
68301;BME280;55146;47.468;18.806;2022-08-04T13:33:40;99925.41;;;34.83;23.67
68301;BME280;55146;47.468;18.806;2022-08-04T13:36:07;99919.28;;;35.01;24.38
68301;BME280;55146;47.468;18.806;2022-08-04T13:38:33;99917.41;;;34.94;25.44
68301;BME280;55146;47.468;18.806;2022-08-04T13:41:04;99919.06;;;34.75;23.87
68301;BME280;55146;47.468;18.806;2022-08-04T13:43:43;99915.75;;;34.77;25.69
68301;BME280;55146;47.468;18.806;2022-08-04T13:46:15;99910.84;;;34.77;27.69
68301;BME280;55146;47.468;18.806;2022-08-04T13:48:42;99913.00;;;34.73;24.08
68301;BME280;55146;47.468;18.806;2022-08-04T13:51:09;99902.81;;;34.72;24.42
68301;BME280;55146;47.468;18.806;2022-08-04T13:53:37;99903.78;;;34.82;24.27
68301;BME280;55146;47.468;18.806;2022-08-04T13:56:04;99898.91;;;34.99;23.89
68301;BME280;55146;47.468;18.806;2022-08-04T13:58:33;99901.63;;;35.06;24.76
68301;BME280;55146;47.468;18.806;2022-08-04T14:01:06;99899.94;;;34.72;26.43
68301;BME280;55146;47.468;18.806;2022-08-04T14:03:49;99902.22;;;34.81;24.48
68301;BME280;55146;47.468;18.806;2022-08-04T14:06:23;99893.16;;;34.82;24.92
68301;BME280;55146;47.468;18.806;2022-08-04T14:11:17;99892.19;;;34.73;24.76
68301;BME280;55146;47.468;18.806;2022-08-04T14:13:43;99889.59;;;34.95;24.01
68301;BME280;55146;47.468;18.806;2022-08-04T14:16:19;99887.59;;;34.75;24.47
68301;BME280;55146;47.468;18.806;2022-08-04T14:18:46;99882.19;;;34.81;23.98
68301;BME280;55146;47.468;18.806;2022-08-04T14:21:15;99883.50;;;34.76;24.00
68301;BME280;55146;47.468;18.806;2022-08-04T14:23:53;99882.19;;;34.81;25.61
68301;BME280;55146;47.468;18.806;2022-08-04T14:28:49;99871.75;;;34.15;26.25
68301;BME280;55146;47.468;18.806;2022-08-04T14:31:20;99876.00;;;34.46;25.11
68301;BME280;55146;47.468;18.806;2022-08-04T14:33:47;99861.88;;;34.39;25.15
68301;BME280;55146;47.468;18.806;2022-08-04T14:36:14;99870.94;;;34.54;24.55
68301;BME280;55146;47.468;18.806;2022-08-04T14:39:00;99870.03;;;34.57;24.43
68301;BME280;55146;47.468;18.806;2022-08-04T14:41:28;99870.56;;;34.52;23.85
68301;BME280;55146;47.468;18.806;2022-08-04T14:43:55;99874.31;;;34.49;23.99
68301;BME280;55146;47.468;18.806;2022-08-04T14:46:23;99863.69;;;34.49;25.62
68301;BME280;55146;47.468;18.806;2022-08-04T14:49:10;99868.19;;;34.31;25.44
68301;BME280;55146;47.468;18.806;2022-08-04T14:51:43;99862.03;;;34.32;24.66
68301;BME280;55146;47.468;18.806;2022-08-04T14:54:10;99873.38;;;34.16;23.71
68301;BME280;55146;47.468;18.806;2022-08-04T14:56:41;99868.25;;;34.07;25.32
68301;BME280;55146;47.468;18.806;2022-08-04T14:59:09;99863.34;;;34.08;25.57
68301;BME280;55146;47.468;18.806;2022-08-04T15:01:36;99864.13;;;33.89;25.41
68301;BME280;55146;47.468;18.806;2022-08-04T15:04:03;99860.56;;;33.85;24.99
68301;BME280;55146;47.468;18.806;2022-08-04T15:06:29;99865.69;;;33.93;24.74
68301;BME280;55146;47.468;18.806;2022-08-04T15:09:04;99864.94;;;34.09;25.04
68301;BME280;55146;47.468;18.806;2022-08-04T15:11:29;99866.13;;;33.49;24.76
68301;BME280;55146;47.468;18.806;2022-08-04T15:13:56;99861.84;;;33.37;25.42
68301;BME280;55146;47.468;18.806;2022-08-04T15:16:23;99859.38;;;33.39;24.75
68301;BME280;55146;47.468;18.806;2022-08-04T15:18:50;99865.91;;;33.13;25.43
68301;BME280;55146;47.468;18.806;2022-08-04T15:21:16;99859.03;;;33.33;25.50
68301;BME280;55146;47.468;18.806;2022-08-04T15:23:41;99859.44;;;33.36;25.01
68301;BME280;55146;47.468;18.806;2022-08-04T15:26:14;99857.47;;;33.33;25.17
68301;BME280;55146;47.468;18.806;2022-08-04T15:28:45;99856.16;;;33.37;24.68
68301;BME280;55146;47.468;18.806;2022-08-04T15:31:14;99851.81;;;33.29;24.19
68301;BME280;55146;47.468;18.806;2022-08-04T15:33:41;99856.06;;;33.17;23.84
68301;BME280;55146;47.468;18.806;2022-08-04T15:39:16;99848.97;;;33.02;25.18
68301;BME280;55146;47.468;18.806;2022-08-04T15:47:14;99843.75;;;32.97;25.38
68301;BME280;55146;47.468;18.806;2022-08-04T15:49:41;99840.56;;;32.95;25.24
68301;BME280;55146;47.468;18.806;2022-08-04T15:52:16;99833.28;;;32.90;25.27
68301;BME280;55146;47.468;18.806;2022-08-04T15:54:41;99837.56;;;33.02;25.35
68301;BME280;55146;47.468;18.806;2022-08-04T15:57:07;99829.97;;;32.96;25.18
68301;BME280;55146;47.468;18.806;2022-08-04T16:07:59;99828.13;;;32.55;26.50
68301;BME280;55146;47.468;18.806;2022-08-04T16:12:54;99827.59;;;32.37;26.20
68301;BME280;55146;47.468;18.806;2022-08-04T16:18:04;99836.19;;;32.33;27.25
68301;BME280;55146;47.468;18.806;2022-08-04T16:20:30;99829.91;;;32.45;26.38
68301;BME280;55146;47.468;18.806;2022-08-04T16:23:01;99831.41;;;32.53;25.93
68301;BME280;55146;47.468;18.806;2022-08-04T16:25:53;99832.69;;;32.49;25.51
68301;BME280;55146;47.468;18.806;2022-08-04T16:31:00;99827.75;;;32.26;26.69
68301;BME280;55146;47.468;18.806;2022-08-04T16:33:27;99829.19;;;32.07;26.31
68301;BME280;55146;47.468;18.806;2022-08-04T16:35:55;99827.16;;;32.08;26.37